Terminal Aerodrome Forecast
Issued by NWS

Current Version | Previous Version | Text Only | Print | Product List | Glossary On
Versions: 1 2 3 4 5 6 7 8 9 10 11 12 13 14 15 16
000
FTUS44 KMAF 301700
TAFHOB
TAF
KHOB 301720Z 3018/3118 15007KT P6SM SCT060
     FM310100 17005KT P6SM SKC
     FM311200 19007KT P6SM SKC
     FM311600 19010KT P6SM SCT060=

USA.gov is the U.S. government's official web portal to all federal, state and local government web resources and services.